createdAt,value
2022-09-28T00:03:49.646Z,5.50
2022-09-28T00:08:52.581Z,5.70
2022-09-28T00:13:58.388Z,5.60
2022-09-28T00:19:01.626Z,5.65
2022-09-28T00:24:22.065Z,6.40
2022-09-28T00:29:33.682Z,6.32
2022-09-28T00:34:38.058Z,5.22
2022-09-28T00:39:44.541Z,5.18
2022-09-28T00:44:57.796Z,5.47
2022-09-28T00:50:06.023Z,5.30
2022-09-28T00:55:16.564Z,5.70
2022-09-28T01:00:19.527Z,4.82
2022-09-28T01:05:22.603Z,4.85
2022-09-28T01:10:25.500Z,5.20
2022-09-28T01:15:29.204Z,5.53
2022-09-28T01:20:52.024Z,5.07
2022-09-28T01:26:44.087Z,5.35
2022-09-28T01:31:51.665Z,6.38
2022-09-28T01:36:56.681Z,6.55
2022-09-28T01:42:03.663Z,5.65
2022-09-28T01:47:09.648Z,5.57
2022-09-28T01:52:21.208Z,7.03
2022-09-28T01:57:34.330Z,7.63
2022-09-28T02:02:56.298Z,7.97
2022-09-28T02:08:35.557Z,5.90
2022-09-28T02:13:46.068Z,7.55
2022-09-28T02:18:48.671Z,6.28
2022-09-28T02:23:57.986Z,6.65
2022-09-28T02:29:01.186Z,7.13
2022-09-28T02:34:05.126Z,6.50
2022-09-28T02:39:17.882Z,6.68
2022-09-28T02:44:57.825Z,6.55
2022-09-28T02:50:07.327Z,6.57
2022-09-28T02:55:44.047Z,6.93
2022-09-28T03:01:07.378Z,6.80
2022-09-28T03:06:15.046Z,7.00
2022-09-28T03:11:31.972Z,6.13
2022-09-28T03:16:35.299Z,7.78
2022-09-28T03:21:40.594Z,8.10
2022-09-28T03:26:43.322Z,6.30
2022-09-28T03:31:48.597Z,6.13
2022-09-28T03:36:51.527Z,5.78
2022-09-28T03:41:54.151Z,6.03
2022-09-28T03:46:59.242Z,5.80
2022-09-28T03:52:02.403Z,5.10
2022-09-28T03:57:05.342Z,7.13
2022-09-28T04:02:08.648Z,6.30
2022-09-28T04:07:11.321Z,5.85
2022-09-28T04:12:14.243Z,5.75
2022-09-28T04:17:16.828Z,4.75
2022-09-28T04:22:19.390Z,5.22
2022-09-28T04:27:40.622Z,5.57
2022-09-28T04:32:43.166Z,6.00
2022-09-28T04:37:45.738Z,5.05
2022-09-28T04:42:55.177Z,5.72
2022-09-28T04:47:58.138Z,5.88
2022-09-28T04:53:24.934Z,5.10
2022-09-28T04:58:28.983Z,4.50
2022-09-28T05:03:33.678Z,4.95
2022-09-28T05:08:48.995Z,5.65
2022-09-28T05:13:52.500Z,4.35
2022-09-28T05:18:56.710Z,5.22
2022-09-28T05:24:00.293Z,6.40
2022-09-28T05:29:03.369Z,4.50
2022-09-28T05:34:24.169Z,5.03
2022-09-28T05:39:29.898Z,4.90
2022-09-28T05:44:32.887Z,6.60
2022-09-28T05:49:37.162Z,5.45
2022-09-28T05:54:39.714Z,5.50
2022-09-28T05:59:43.643Z,5.50
2022-09-28T06:04:48.294Z,5.95
2022-09-28T06:09:51.774Z,5.72
2022-09-28T06:15:05.976Z,5.70
2022-09-28T06:20:09.293Z,7.47
2022-09-28T06:25:33.239Z,7.38
2022-09-28T06:30:38.544Z,6.82
2022-09-28T06:35:44.102Z,7.80
2022-09-28T06:40:46.924Z,7.20
2022-09-28T06:45:53.701Z,7.78
2022-09-28T06:51:07.511Z,8.68
2022-09-28T06:56:32.753Z,7.40
2022-09-28T07:01:36.168Z,9.82
2022-09-28T07:07:02.160Z,9.50
2022-09-28T07:12:25.479Z,10.93
2022-09-28T07:17:51.024Z,11.45
2022-09-28T07:23:11.546Z,14.85
2022-09-28T07:28:41.460Z,15.38
2022-09-28T07:33:56.609Z,17.58
2022-09-28T07:39:05.625Z,17.17
2022-09-28T07:44:08.800Z,19.25
2022-09-28T07:49:15.645Z,20.92
2022-09-28T07:54:31.395Z,23.02
2022-09-28T08:00:09.551Z,24.42
2022-09-28T08:05:21.147Z,23.30
2022-09-28T08:10:23.864Z,22.92
2022-09-28T08:15:37.947Z,24.58
2022-09-28T08:21:12.642Z,24.88
2022-09-28T08:26:16.129Z,17.42
2022-09-28T08:31:20.279Z,12.55
2022-09-28T08:36:41.645Z,9.85
2022-09-28T08:42:38.059Z,6.45
2022-09-28T08:48:25.189Z,5.63
2022-09-28T08:54:11.923Z,3.80
2022-09-28T08:59:42.227Z,3.50
2022-09-28T09:04:52.060Z,3.47
2022-09-28T09:10:22.154Z,2.70
2022-09-28T09:15:48.997Z,2.33
2022-09-28T09:21:16.782Z,2.10
2022-09-28T09:26:26.277Z,2.08
2022-09-28T09:31:50.151Z,1.70
2022-09-28T09:37:05.405Z,1.70
2022-09-28T09:42:43.169Z,1.77
2022-09-28T09:48:25.390Z,1.38
2022-09-28T09:53:30.388Z,1.30
2022-09-28T09:58:41.080Z,1.30
2022-09-28T10:03:59.042Z,1.30
2022-09-28T10:09:11.251Z,1.05
2022-09-28T10:14:17.463Z,1.23
2022-09-28T10:19:33.587Z,1.08
2022-09-28T10:24:57.559Z,1.10
2022-09-28T10:30:11.699Z,1.15
2022-09-28T10:35:41.903Z,1.40
2022-09-28T10:41:00.878Z,1.40
2022-09-28T10:46:23.542Z,1.30
2022-09-28T10:52:00.785Z,0.80
2022-09-28T10:57:27.636Z,0.93
2022-09-28T11:02:38.353Z,1.00
2022-09-28T11:07:47.397Z,1.17
2022-09-28T11:12:55.007Z,1.05
2022-09-28T11:18:24.497Z,0.88
2022-09-28T11:23:31.752Z,1.10
2022-09-28T11:28:51.374Z,1.20
2022-09-28T11:34:30.998Z,0.70
2022-09-28T11:40:16.165Z,0.90
2022-09-28T11:45:37.046Z,0.40
2022-09-28T11:51:20.759Z,0.73
2022-09-28T11:56:41.565Z,0.90
2022-09-28T12:02:01.235Z,0.88
2022-09-28T12:07:37.337Z,0.85
2022-09-28T12:12:50.912Z,1.60
2022-09-28T12:18:19.297Z,1.30
2022-09-28T12:23:35.737Z,1.20
2022-09-28T12:28:46.188Z,1.17
2022-09-28T12:33:52.901Z,1.00
2022-09-28T12:39:46.790Z,0.77
2022-09-28T12:45:12.608Z,1.02
2022-09-28T12:50:38.807Z,1.17
2022-09-28T12:56:03.200Z,0.90
2022-09-28T13:01:13.847Z,0.90
2022-09-28T13:06:36.835Z,0.80
2022-09-28T13:11:45.360Z,1.10
2022-09-28T13:16:58.407Z,1.00
2022-09-28T13:22:24.265Z,0.80
2022-09-28T13:27:32.197Z,1.05
2022-09-28T13:32:36.336Z,0.88
2022-09-28T13:37:38.913Z,1.00
2022-09-28T13:42:44.345Z,1.00
2022-09-28T13:48:14.673Z,1.08
2022-09-28T13:53:23.269Z,1.10
2022-09-28T13:58:38.469Z,1.15
2022-09-28T14:03:55.430Z,1.30
2022-09-28T14:09:12.866Z,1.30
2022-09-28T14:14:16.059Z,1.40
2022-09-28T14:19:21.685Z,1.30
2022-09-28T14:24:55.587Z,1.40
2022-09-28T14:30:20.021Z,1.02
2022-09-28T14:35:42.103Z,1.20
2022-09-28T14:41:09.604Z,1.40
2022-09-28T14:46:14.991Z,1.38
2022-09-28T14:51:26.666Z,1.30
2022-09-28T14:56:33.769Z,1.40
2022-09-28T15:01:36.755Z,1.50
2022-09-28T15:06:50.009Z,1.63
2022-09-28T15:11:57.552Z,2.25
2022-09-28T15:17:03.705Z,1.90
2022-09-28T15:22:23.063Z,1.90
2022-09-28T15:27:34.873Z,2.50
2022-09-28T15:32:37.436Z,2.10
2022-09-28T15:37:40.752Z,1.70
2022-09-28T15:42:45.268Z,1.40
2022-09-28T15:47:48.162Z,1.13
2022-09-28T15:53:04.825Z,1.48
2022-09-28T15:58:29.007Z,1.50
2022-09-28T16:03:32.354Z,1.40
2022-09-28T16:08:45.744Z,1.67
2022-09-28T16:13:56.296Z,1.90
2022-09-28T16:19:00.763Z,2.00
2022-09-28T16:24:04.027Z,1.77
2022-09-28T16:29:09.770Z,2.00
2022-09-28T16:34:21.250Z,1.90
2022-09-28T16:39:24.993Z,1.70
2022-09-28T16:44:30.195Z,2.00
2022-09-28T16:49:33.381Z,1.70
2022-09-28T16:54:54.718Z,1.90
2022-09-28T16:59:57.501Z,1.90
2022-09-28T17:05:00.195Z,2.00
2022-09-28T17:10:03.957Z,1.63
2022-09-28T17:15:08.052Z,1.90
2022-09-28T17:20:23.120Z,1.83
2022-09-28T17:25:26.760Z,1.92
2022-09-28T17:30:29.263Z,1.80
2022-09-28T17:35:34.091Z,2.00
2022-09-28T17:40:39.178Z,2.35
2022-09-28T17:45:41.928Z,2.20
2022-09-28T17:50:47.367Z,2.28
2022-09-28T17:55:50.494Z,2.25
2022-09-28T18:00:54.264Z,2.10
2022-09-28T18:06:03.770Z,2.30
2022-09-28T18:11:06.480Z,2.25
2022-09-28T18:16:09.339Z,2.10
2022-09-28T18:21:12.003Z,2.17
2022-09-28T18:26:16.364Z,2.55
2022-09-28T18:31:19.317Z,2.38
2022-09-28T18:36:30.938Z,2.58
2022-09-28T18:41:34.620Z,2.60
2022-09-28T18:46:37.313Z,2.55
2022-09-28T18:51:39.902Z,2.97
2022-09-28T18:56:45.006Z,2.40
2022-09-28T19:01:47.562Z,2.78
2022-09-28T19:06:52.313Z,2.45
2022-09-28T19:11:54.873Z,2.85
2022-09-28T19:16:57.504Z,2.67
2022-09-28T19:22:00.131Z,3.00
2022-09-28T19:27:02.963Z,2.90
2022-09-28T19:32:05.538Z,2.92
2022-09-28T19:37:08.204Z,3.33
2022-09-28T19:42:10.725Z,2.83
2022-09-28T19:47:13.451Z,3.25
2022-09-28T19:52:16.974Z,3.38
2022-09-28T19:57:20.194Z,3.30
2022-09-28T20:02:22.777Z,3.65
2022-09-28T20:07:25.508Z,3.25
2022-09-28T20:12:28.273Z,3.70
2022-09-28T20:17:32.063Z,3.50
2022-09-28T20:22:34.546Z,4.10
2022-09-28T20:27:39.272Z,3.70
2022-09-28T20:32:44.191Z,6.30
2022-09-28T20:37:50.247Z,5.63
2022-09-28T20:42:52.813Z,4.20
2022-09-28T20:47:55.399Z,4.97
2022-09-28T20:52:58.091Z,4.82
2022-09-28T20:58:05.336Z,4.25
2022-09-28T21:03:09.215Z,4.30
2022-09-28T21:08:12.165Z,4.90
2022-09-28T21:13:14.712Z,4.22
2022-09-28T21:18:18.070Z,4.10
2022-09-28T21:23:24.692Z,4.03
2022-09-28T21:28:27.691Z,4.38
2022-09-28T21:33:30.222Z,4.88
2022-09-28T21:38:33.154Z,5.22
2022-09-28T21:43:37.051Z,4.82
2022-09-28T21:48:40.414Z,5.03
2022-09-28T21:53:43.483Z,4.70
2022-09-28T21:59:04.792Z,4.43
2022-09-28T22:04:09.552Z,4.93
2022-09-28T22:14:15.446Z,4.22
2022-09-28T22:19:18.056Z,4.38
2022-09-28T22:24:20.687Z,4.07
2022-09-28T22:29:24.403Z,4.30
2022-09-28T22:34:29.307Z,3.90
2022-09-28T22:44:40.556Z,3.90
2022-09-28T22:49:43.193Z,4.07
2022-09-28T22:54:49.831Z,4.13
2022-09-28T22:59:52.358Z,4.25
2022-09-28T23:04:54.835Z,4.53
2022-09-28T23:09:59.764Z,4.72
2022-09-28T23:15:04.142Z,5.78
2022-09-28T23:20:07.116Z,4.80
2022-09-28T23:25:10.675Z,5.35
2022-09-28T23:30:15.854Z,5.15
2022-09-28T23:35:19.011Z,4.97
2022-09-28T23:40:21.712Z,4.65
2022-09-28T23:45:25.598Z,5.13
2022-09-28T23:50:29.374Z,4.93
2022-09-28T23:55:32.045Z,5.05
